Time;durP1;ratioP1;P1;durP2;ratioP2;P2;SDS_P1;SDS_P2;PMS_P1;PMS_P2;Temp;Humidity;BMP_temperature;BMP_pressure;BME280_temperature;BME280_humidity;BME280_pressure;Samples;Min_cycle;Max_cycle;Signal;HPM_P1;HPM_P2
2023/04/12 00:02:07;;;;;;;9.82;1.83;;;8.40;99.90;;;;;;5009411;28;20028;-64
2023/04/12 00:04:34;;;;;;;6.63;1.88;;;8.40;99.90;;;;;;5011093;28;20030;-64
2023/04/12 00:07:01;;;;;;;7.95;1.55;;;8.30;99.90;;;;;;5004136;28;20472;-64
2023/04/12 00:09:29;;;;;;;9.15;2.67;;;8.40;99.90;;;;;;5008776;28;20040;-64
2023/04/12 00:11:58;;;;;;;3.15;1.65;;;8.30;99.90;;;;;;5006289;28;20018;-63
2023/04/12 00:14:24;;;;;;;4.53;1.75;;;8.30;99.90;;;;;;5011656;28;20035;-64
2023/04/12 00:16:50;;;;;;;11.32;2.00;;;8.30;99.90;;;;;;5018246;28;20484;-64
2023/04/12 00:19:16;;;;;;;5.28;1.55;;;8.20;99.90;;;;;;5007711;28;20034;-64
2023/04/12 00:21:42;;;;;;;2.92;1.38;;;8.20;99.90;;;;;;5007327;28;20025;-64
2023/04/12 00:24:08;;;;;;;7.38;1.40;;;8.20;99.90;;;;;;5010065;28;20025;-64
2023/04/12 00:26:34;;;;;;;8.90;2.28;;;8.20;99.90;;;;;;4982186;28;20030;-64
2023/04/12 00:29:00;;;;;;;6.00;1.73;;;8.20;99.90;;;;;;5015482;28;20127;-64
2023/04/12 00:31:25;;;;;;;5.50;2.03;;;8.10;99.90;;;;;;5004071;28;20112;-64
2023/04/12 00:33:51;;;;;;;4.13;1.20;;;8.10;99.90;;;;;;5006281;28;20080;-64
2023/04/12 00:36:16;;;;;;;8.55;1.42;;;8.10;99.90;;;;;;5006532;28;20029;-64
2023/04/12 00:38:44;;;;;;;7.95;2.42;;;8.00;99.90;;;;;;5003503;28;20176;-64
2023/04/12 00:41:10;;;;;;;12.43;1.88;;;8.10;99.90;;;;;;5012359;28;20487;-62
2023/04/12 00:43:36;;;;;;;4.55;1.30;;;8.10;99.90;;;;;;5009847;28;20026;-65
2023/04/12 00:46:02;;;;;;;5.20;1.40;;;8.00;99.90;;;;;;5006949;28;20033;-64
2023/04/12 00:48:28;;;;;;;6.43;1.50;;;8.00;99.90;;;;;;5001569;28;20044;-65
2023/04/12 00:50:56;;;;;;;9.48;1.58;;;8.00;99.90;;;;;;4992436;28;20145;-65
2023/04/12 00:53:22;;;;;;;3.33;1.42;;;8.00;99.90;;;;;;5009182;28;20026;-64
2023/04/12 00:55:50;;;;;;;3.55;1.45;;;8.10;99.90;;;;;;5007677;28;20388;-65
2023/04/12 00:58:16;;;;;;;8.15;2.13;;;8.00;99.90;;;;;;5008982;28;20038;-63
2023/04/12 01:00:49;;;;;;;7.63;1.42;;;8.00;99.90;;;;;;5011037;28;20049;-64
2023/04/12 01:03:21;;;;;;;6.20;1.45;;;8.00;99.90;;;;;;5009980;28;20026;-64
2023/04/12 01:06:12;;;;;;;8.35;1.35;;;8.00;99.90;;;;;;5002298;28;20065;-64
2023/04/12 01:08:44;;;;;;;6.38;1.48;;;8.00;99.90;;;;;;5009824;28;20018;-64
2023/04/12 01:11:44;;;;;;;7.03;1.98;;;8.00;99.90;;;;;;5010481;28;20021;-65
2023/04/12 01:14:27;;;;;;;4.75;1.70;;;8.00;99.90;;;;;;4993705;28;20038;-64
2023/04/12 01:16:57;;;;;;;6.53;1.40;;;8.00;99.90;;;;;;5002887;28;20061;-64
2023/04/12 01:19:34;;;;;;;7.47;1.08;;;7.90;99.90;;;;;;5010041;28;20034;-64
2023/04/12 01:22:36;;;;;;;8.10;1.38;;;7.90;99.90;;;;;;5004840;28;20018;-64
2023/04/12 01:25:22;;;;;;;4.60;1.05;;;7.90;99.90;;;;;;5008527;28;20037;-64
2023/04/12 01:28:01;;;;;;;2.80;1.05;;;7.90;99.90;;;;;;5019612;28;20025;-64
2023/04/12 01:30:28;;;;;;;6.53;1.30;;;7.80;99.90;;;;;;5010113;28;20018;-65
2023/04/12 01:32:55;;;;;;;5.65;1.30;;;7.90;99.90;;;;;;5001943;28;20045;-65
2023/04/12 01:35:26;;;;;;;11.52;1.83;;;7.90;99.90;;;;;;5001475;28;20041;-65
2023/04/12 01:37:53;;;;;;;7.93;1.63;;;7.80;99.90;;;;;;5000450;28;20061;-64
2023/04/12 01:40:19;;;;;;;5.15;1.45;;;7.80;99.90;;;;;;5007604;28;20100;-64
2023/04/12 01:42:44;;;;;;;6.30;1.92;;;7.80;99.90;;;;;;5009327;28;20024;-64
2023/04/12 01:45:10;;;;;;;8.55;1.80;;;7.80;99.90;;;;;;5010216;28;20018;-63
2023/04/12 01:47:37;;;;;;;5.50;1.67;;;7.80;99.90;;;;;;5001610;28;20029;-65
2023/04/12 01:50:26;;;;;;;4.90;1.27;;;7.80;99.90;;;;;;5009564;28;20026;-64
2023/04/12 01:53:13;;;;;;;5.65;1.33;;;7.80;99.90;;;;;;4989848;28;20060;-64
2023/04/12 01:55:41;;;;;;;6.90;1.63;;;7.70;99.90;;;;;;5003524;28;20569;-64
2023/04/12 01:58:10;;;;;;;4.10;1.35;;;7.70;99.90;;;;;;4998282;28;20407;-64
2023/04/12 02:00:37;;;;;;;12.20;1.63;;;7.70;99.90;;;;;;5004843;28;20023;-64
2023/04/12 02:03:04;;;;;;;3.00;1.10;;;7.70;99.90;;;;;;5023747;28;20476;-63
2023/04/12 02:05:31;;;;;;;11.82;1.35;;;7.80;99.90;;;;;;5010116;28;20247;-65
2023/04/12 02:07:57;;;;;;;7.78;1.92;;;7.80;99.90;;;;;;5014014;28;20019;-64
2023/04/12 02:10:35;;;;;;;3.17;1.30;;;7.80;99.90;;;;;;5007056;28;20115;-64
2023/04/12 02:13:01;;;;;;;4.88;1.25;;;7.80;99.90;;;;;;5010615;28;20025;-64
2023/04/12 02:15:27;;;;;;;7.38;1.70;;;7.80;99.90;;;;;;5012006;28;20057;-64
2023/04/12 02:17:54;;;;;;;7.97;1.80;;;7.80;99.90;;;;;;5008590;28;20116;-64
2023/04/12 02:20:21;;;;;;;5.00;1.50;;;7.80;99.90;;;;;;5016978;28;20026;-63
2023/04/12 02:22:47;;;;;;;6.95;1.38;;;7.80;99.90;;;;;;5011733;28;20014;-64
2023/04/12 02:25:14;;;;;;;5.57;1.48;;;7.80;99.90;;;;;;5013199;28;20476;-65
2023/04/12 02:27:39;;;;;;;5.18;1.42;;;7.70;99.90;;;;;;5011097;28;20028;-64
2023/04/12 02:30:07;;;;;;;11.93;1.85;;;7.70;99.90;;;;;;5012648;28;20018;-65
2023/04/12 02:32:42;;;;;;;6.55;1.17;;;7.70;99.90;;;;;;5009727;28;20033;-64
2023/04/12 02:35:11;;;;;;;6.57;1.30;;;7.70;99.90;;;;;;5012462;28;20029;-64
2023/04/12 02:37:38;;;;;;;6.50;1.92;;;7.70;99.90;;;;;;5005556;28;20034;-64
2023/04/12 02:40:09;;;;;;;10.63;1.40;;;7.70;99.90;;;;;;5015805;28;20022;-65
2023/04/12 02:42:35;;;;;;;4.68;1.60;;;7.70;99.90;;;;;;5011326;28;20550;-64
2023/04/12 02:45:00;;;;;;;6.80;0.98;;;7.70;99.90;;;;;;5010878;28;20029;-64
2023/04/12 02:47:28;;;;;;;6.63;1.73;;;7.70;99.90;;;;;;5004159;28;20080;-64
2023/04/12 02:49:53;;;;;;;8.65;1.48;;;7.70;99.90;;;;;;5013142;28;20036;-64
2023/04/12 02:52:19;;;;;;;5.70;1.83;;;7.70;99.90;;;;;;4995592;28;20030;-64
2023/04/12 02:54:45;;;;;;;8.60;1.50;;;7.70;99.90;;;;;;5013100;28;20479;-65
2023/04/12 02:57:11;;;;;;;4.32;1.55;;;7.60;99.90;;;;;;5010477;28;20108;-63
2023/04/12 02:59:37;;;;;;;6.75;1.70;;;7.60;99.90;;;;;;5010758;28;20123;-64
2023/04/12 03:02:03;;;;;;;8.88;1.45;;;7.60;99.90;;;;;;5009245;28;20050;-64
2023/04/12 03:04:29;;;;;;;5.20;1.30;;;7.60;99.90;;;;;;5010191;28;20096;-65
2023/04/12 03:06:55;;;;;;;3.83;1.60;;;7.60;99.90;;;;;;5011851;28;20332;-64
2023/04/12 03:09:22;;;;;;;1.83;1.20;;;7.60;99.90;;;;;;5027113;28;20117;-65
2023/04/12 03:11:47;;;;;;;7.70;1.60;;;7.60;99.90;;;;;;5009495;28;20034;-63
2023/04/12 03:14:13;;;;;;;9.02;1.45;;;7.60;99.90;;;;;;5011330;28;20025;-64
2023/04/12 03:16:38;;;;;;;7.20;1.55;;;7.60;99.90;;;;;;5014912;28;20034;-65
2023/04/12 03:19:05;;;;;;;5.57;1.98;;;7.60;99.90;;;;;;5012831;28;20056;-64
2023/04/12 03:21:32;;;;;;;3.40;1.13;;;7.60;99.90;;;;;;5009211;28;20380;-64
2023/04/12 03:23:58;;;;;;;5.88;1.55;;;7.50;99.90;;;;;;5009592;28;20526;-64
2023/04/12 03:26:25;;;;;;;4.30;1.27;;;7.50;99.90;;;;;;5008340;28;20052;-64
2023/04/12 03:28:55;;;;;;;4.20;1.30;;;7.50;99.90;;;;;;5003855;28;20017;-63
2023/04/12 03:31:20;;;;;;;5.65;1.23;;;7.50;99.90;;;;;;5006105;28;20032;-64
2023/04/12 03:33:46;;;;;;;6.95;2.03;;;7.50;99.90;;;;;;5010759;28;20021;-64
2023/04/12 03:36:12;;;;;;;3.53;1.60;;;7.50;99.90;;;;;;5007321;28;20113;-63
2023/04/12 03:38:37;;;;;;;3.90;1.85;;;7.50;99.90;;;;;;5008150;28;20069;-63
2023/04/12 03:41:03;;;;;;;2.35;1.20;;;7.50;99.90;;;;;;5012444;28;20024;-64
2023/04/12 03:43:34;;;;;;;7.25;1.50;;;7.50;99.90;;;;;;5010149;28;20030;-64
2023/04/12 03:46:01;;;;;;;2.80;1.20;;;7.50;99.90;;;;;;5009077;28;20352;-64
2023/04/12 03:48:27;;;;;;;5.25;1.65;;;7.50;99.90;;;;;;5010033;28;20072;-63
2023/04/12 03:50:53;;;;;;;3.30;1.45;;;7.50;99.90;;;;;;5012248;28;20026;-62
2023/04/12 03:53:20;;;;;;;7.22;1.75;;;7.50;99.90;;;;;;4989562;28;20115;-64
2023/04/12 03:55:45;;;;;;;4.18;1.35;;;7.50;99.90;;;;;;5009203;28;21433;-63
2023/04/12 03:58:12;;;;;;;6.65;1.60;;;7.50;99.90;;;;;;5005881;28;20034;-63
2023/04/12 04:00:38;;;;;;;4.88;1.33;;;7.40;99.90;;;;;;5009930;28;20026;-64
2023/04/12 04:03:04;;;;;;;3.75;1.48;;;7.40;99.90;;;;;;5006039;28;20389;-64
2023/04/12 04:05:30;;;;;;;3.08;1.50;;;7.40;99.90;;;;;;5009307;28;20040;-63
2023/04/12 04:07:59;;;;;;;5.38;1.60;;;7.40;99.90;;;;;;5003582;28;20022;-63
2023/04/12 04:10:26;;;;;;;2.78;1.38;;;7.40;99.90;;;;;;5009021;28;20114;-64
2023/04/12 04:12:53;;;;;;;5.80;1.15;;;7.40;99.90;;;;;;5018312;28;20037;-62
2023/04/12 04:15:18;;;;;;;3.78;1.60;;;7.40;99.90;;;;;;5009424;28;20061;-63
2023/04/12 04:17:46;;;;;;;7.55;1.75;;;7.40;99.90;;;;;;5004867;28;20530;-65
2023/04/12 04:20:12;;;;;;;7.13;1.52;;;7.40;99.90;;;;;;5008846;28;20695;-63
2023/04/12 04:22:38;;;;;;;4.72;1.15;;;7.40;99.90;;;;;;5009075;28;20026;-64
2023/04/12 04:25:07;;;;;;;5.88;1.60;;;7.40;99.90;;;;;;5007831;28;20036;-64
2023/04/12 04:27:33;;;;;;;3.00;1.63;;;7.40;99.90;;;;;;5002399;28;20101;-64
2023/04/12 04:30:01;;;;;;;7.28;1.42;;;7.40;99.90;;;;;;5011692;28;20033;-63
2023/04/12 04:32:27;;;;;;;3.58;2.13;;;7.40;99.90;;;;;;5023407;28;20054;-63
2023/04/12 04:35:00;;;;;;;5.43;1.30;;;7.50;99.90;;;;;;5010963;28;20038;-63
2023/04/12 04:37:30;;;;;;;2.83;1.40;;;7.50;99.90;;;;;;5003043;28;20083;-64
2023/04/12 04:39:55;;;;;;;3.38;1.92;;;7.40;99.90;;;;;;5002257;28;20019;-64
2023/04/12 04:42:23;;;;;;;5.68;1.10;;;7.50;99.90;;;;;;5008746;28;20037;-64
2023/04/12 04:44:50;;;;;;;4.53;1.60;;;7.50;99.90;;;;;;5007999;28;20053;-63
2023/04/12 04:47:16;;;;;;;3.90;1.45;;;7.50;99.90;;;;;;5002844;28;20160;-63
2023/04/12 04:49:43;;;;;;;4.35;1.00;;;7.50;99.90;;;;;;5008454;28;20113;-64
2023/04/12 04:52:08;;;;;;;2.88;1.30;;;7.40;99.90;;;;;;4988672;28;20030;-63
2023/04/12 04:54:34;;;;;;;3.88;1.38;;;7.50;99.90;;;;;;5008865;28;20171;-64
2023/04/12 04:57:00;;;;;;;5.90;1.38;;;7.50;99.90;;;;;;5005083;28;20490;-62
2023/04/12 04:59:26;;;;;;;5.78;1.63;;;7.50;99.90;;;;;;5005924;28;20030;-63
2023/04/12 05:01:51;;;;;;;7.35;1.48;;;7.50;99.90;;;;;;5006082;28;20033;-65
2023/04/12 05:04:17;;;;;;;2.95;1.48;;;7.50;99.90;;;;;;5010053;28;20030;-65
2023/04/12 05:06:44;;;;;;;4.13;1.02;;;7.50;99.90;;;;;;5005207;28;20045;-64
2023/04/12 05:09:10;;;;;;;4.32;1.25;;;7.50;99.90;;;;;;5008585;28;20022;-63
2023/04/12 05:11:36;;;;;;;3.65;1.08;;;7.50;99.90;;;;;;5007692;28;20040;-64
2023/04/12 05:14:01;;;;;;;3.35;1.27;;;7.50;99.90;;;;;;5009086;28;20430;-64
2023/04/12 05:16:27;;;;;;;3.53;1.10;;;7.50;99.90;;;;;;5004019;28;20041;-64
2023/04/12 05:18:53;;;;;;;4.78;1.23;;;7.50;99.90;;;;;;5005883;28;20034;-63
2023/04/12 05:21:18;;;;;;;2.88;1.15;;;7.50;99.90;;;;;;5008598;28;20030;-63
2023/04/12 05:23:46;;;;;;;1.52;0.85;;;7.50;99.90;;;;;;5007235;28;20034;-65
2023/04/12 05:26:12;;;;;;;1.88;1.30;;;7.50;99.90;;;;;;5007959;28;20042;-64
2023/04/12 05:28:37;;;;;;;4.15;1.30;;;7.50;99.90;;;;;;5007519;28;20033;-63
2023/04/12 05:31:04;;;;;;;3.67;1.30;;;7.50;99.90;;;;;;5008254;28;20670;-63
2023/04/12 05:33:30;;;;;;;2.08;1.08;;;7.50;99.90;;;;;;5008080;28;20113;-63
2023/04/12 05:35:56;;;;;;;3.40;1.10;;;7.50;99.90;;;;;;5012813;28;20050;-63
2023/04/12 05:38:22;;;;;;;3.03;1.00;;;7.60;99.90;;;;;;5009062;28;20474;-64
2023/04/12 05:40:48;;;;;;;3.08;1.00;;;7.60;99.90;;;;;;5011629;28;20928;-62
2023/04/12 05:43:14;;;;;;;4.30;1.17;;;7.60;99.90;;;;;;5009921;28;20384;-63
2023/04/12 05:45:40;;;;;;;5.57;0.93;;;7.60;99.90;;;;;;5014401;28;20029;-64
2023/04/12 05:48:06;;;;;;;2.00;0.77;;;7.60;99.90;;;;;;5009765;28;20030;-65
2023/04/12 05:50:32;;;;;;;3.75;1.38;;;7.60;99.90;;;;;;5014411;28;20080;-64
2023/04/12 05:53:00;;;;;;;1.48;0.80;;;7.60;99.90;;;;;;4989134;28;20107;-64
2023/04/12 05:55:26;;;;;;;2.03;1.30;;;7.70;99.90;;;;;;5012166;28;20057;-65
2023/04/12 05:57:52;;;;;;;4.32;1.13;;;7.60;99.90;;;;;;5008647;28;20099;-65
2023/04/12 06:00:20;;;;;;;4.90;1.08;;;7.60;99.90;;;;;;5013123;28;20117;-63
2023/04/12 06:02:47;;;;;;;3.05;0.80;;;7.60;99.90;;;;;;5008328;28;20415;-64
2023/04/12 06:05:15;;;;;;;3.42;1.00;;;7.70;99.90;;;;;;5011974;28;20505;-65
2023/04/12 06:07:45;;;;;;;3.10;0.90;;;7.60;99.90;;;;;;5008748;28;20438;-63
2023/04/12 06:10:12;;;;;;;2.55;0.93;;;7.60;99.90;;;;;;5006202;28;20022;-65
2023/04/12 06:12:37;;;;;;;1.50;0.95;;;7.60;99.90;;;;;;5008219;28;20077;-65
2023/04/12 06:15:04;;;;;;;1.35;0.95;;;7.60;99.90;;;;;;5009204;28;20061;-63
2023/04/12 06:17:29;;;;;;;1.33;0.80;;;7.60;99.90;;;;;;5010796;28;20033;-63
2023/04/12 06:19:55;;;;;;;6.38;1.15;;;7.60;99.90;;;;;;5012490;28;20029;-65
2023/04/12 06:22:21;;;;;;;5.20;1.20;;;7.70;99.90;;;;;;5013172;28;20085;-63
2023/04/12 06:24:46;;;;;;;3.05;1.10;;;7.70;99.90;;;;;;5010488;28;20216;-64
2023/04/12 06:27:12;;;;;;;3.00;0.98;;;7.70;99.90;;;;;;5025380;28;20037;-63
2023/04/12 06:29:37;;;;;;;4.82;0.88;;;7.70;99.90;;;;;;5010985;28;20203;-65
2023/04/12 06:32:03;;;;;;;2.35;1.42;;;7.70;99.90;;;;;;5012054;28;20149;-65
2023/04/12 06:34:29;;;;;;;2.88;1.15;;;7.80;99.90;;;;;;5011855;28;20037;-65
2023/04/12 06:36:56;;;;;;;4.63;1.15;;;7.80;99.90;;;;;;5006184;28;20030;-63
2023/04/12 06:39:21;;;;;;;2.13;0.70;;;7.80;99.90;;;;;;5008748;28;20052;-65
2023/04/12 06:41:49;;;;;;;3.53;1.05;;;7.80;99.90;;;;;;5007681;28;20030;-63
2023/04/12 06:44:15;;;;;;;2.05;1.17;;;7.90;99.90;;;;;;5013062;28;20021;-65
2023/04/12 06:46:41;;;;;;;4.07;0.93;;;7.90;99.90;;;;;;5007421;28;20116;-65
2023/04/12 06:49:06;;;;;;;4.15;0.70;;;7.90;99.90;;;;;;5012916;28;20057;-65
2023/04/12 06:51:33;;;;;;;4.63;0.98;;;7.90;99.90;;;;;;5008807;28;20124;-64
2023/04/12 06:53:58;;;;;;;1.45;0.60;;;8.00;99.90;;;;;;4994675;28;20045;-66
2023/04/12 06:56:24;;;;;;;3.03;1.20;;;8.00;99.90;;;;;;5007438;28;20060;-65
2023/04/12 06:58:50;;;;;;;1.05;0.70;;;8.00;99.90;;;;;;5009090;28;20032;-64
2023/04/12 07:01:16;;;;;;;1.25;0.80;;;8.00;99.90;;;;;;5009707;28;20467;-62
2023/04/12 07:03:42;;;;;;;1.15;0.73;;;8.00;99.90;;;;;;5010326;28;20080;-64
2023/04/12 07:06:07;;;;;;;1.35;0.80;;;8.10;99.90;;;;;;5012643;28;20022;-65
2023/04/12 07:08:35;;;;;;;2.42;0.88;;;8.10;99.90;;;;;;5004917;28;20030;-65
2023/04/12 07:11:00;;;;;;;4.25;0.95;;;8.20;99.90;;;;;;5007357;28;20037;-64
2023/04/12 07:13:26;;;;;;;1.42;1.00;;;8.20;99.90;;;;;;5007681;28;20026;-63
2023/04/12 07:15:53;;;;;;;3.10;1.52;;;8.20;99.90;;;;;;5011559;28;20120;-65
2023/04/12 07:18:19;;;;;;;3.05;0.73;;;8.20;99.90;;;;;;5007814;28;20029;-64
2023/04/12 07:20:46;;;;;;;3.13;0.80;;;8.20;99.90;;;;;;5012165;28;20036;-65
2023/04/12 07:23:13;;;;;;;1.48;0.70;;;8.20;99.90;;;;;;5007939;28;20108;-65
2023/04/12 07:25:39;;;;;;;2.97;0.70;;;8.20;99.90;;;;;;5008981;28;20029;-63
2023/04/12 07:28:05;;;;;;;1.05;0.73;;;8.20;99.90;;;;;;5004719;28;20391;-65
2023/04/12 07:30:30;;;;;;;4.25;1.58;;;8.20;99.90;;;;;;5010438;28;20044;-65
2023/04/12 07:32:56;;;;;;;2.80;0.90;;;8.20;99.90;;;;;;5004101;28;20515;-65
2023/04/12 07:35:22;;;;;;;1.92;1.08;;;8.30;99.90;;;;;;5011798;28;20080;-65
2023/04/12 07:37:47;;;;;;;1.38;0.90;;;8.30;99.90;;;;;;5007731;28;20045;-64
2023/04/12 07:40:13;;;;;;;2.72;0.80;;;8.30;99.90;;;;;;5009079;28;20034;-65
2023/04/12 07:42:39;;;;;;;1.80;1.00;;;8.40;99.90;;;;;;5010712;28;20053;-64
2023/04/12 07:45:05;;;;;;;1.75;1.10;;;8.40;99.90;;;;;;5011091;28;20028;-64
2023/04/12 07:47:31;;;;;;;2.53;0.85;;;8.50;99.90;;;;;;5006513;28;20117;-65
2023/04/12 07:49:57;;;;;;;1.80;1.00;;;8.60;99.90;;;;;;5010569;28;20029;-65
2023/04/12 07:52:23;;;;;;;2.15;0.57;;;8.60;99.90;;;;;;4991739;28;20079;-65
2023/04/12 07:54:49;;;;;;;4.70;1.15;;;8.70;99.90;;;;;;5009692;28;20042;-65
2023/04/12 07:57:15;;;;;;;1.67;0.80;;;8.80;99.90;;;;;;5008761;28;20441;-65
2023/04/12 07:59:41;;;;;;;1.58;0.68;;;8.80;99.90;;;;;;5008394;28;20034;-65
2023/04/12 08:02:06;;;;;;;1.10;0.80;;;8.90;99.90;;;;;;5007482;28;20029;-65
2023/04/12 08:04:32;;;;;;;2.05;0.80;;;9.00;99.90;;;;;;5008092;28;20034;-66
2023/04/12 08:06:57;;;;;;;0.95;0.68;;;9.10;99.90;;;;;;5007510;28;20053;-65
2023/04/12 08:09:24;;;;;;;1.38;0.52;;;9.10;99.90;;;;;;5007057;28;20476;-64
2023/04/12 08:11:49;;;;;;;1.75;0.77;;;9.30;99.90;;;;;;5006391;28;20037;-64
2023/04/12 08:14:15;;;;;;;3.15;0.75;;;9.20;99.90;;;;;;5010237;28;20026;-66
2023/04/12 08:16:40;;;;;;;1.27;0.77;;;9.30;99.90;;;;;;5007071;28;20058;-65
2023/04/12 08:19:06;;;;;;;1.05;0.70;;;9.30;99.90;;;;;;5009233;28;20392;-65
2023/04/12 08:21:32;;;;;;;0.60;0.55;;;9.30;99.90;;;;;;5008349;28;20069;-65
2023/04/12 08:23:58;;;;;;;1.65;0.75;;;9.40;99.90;;;;;;5009916;28;20483;-65
2023/04/12 08:26:25;;;;;;;0.43;0.40;;;9.50;99.90;;;;;;5007419;28;20029;-65
2023/04/12 08:28:51;;;;;;;1.63;0.75;;;9.60;99.90;;;;;;4998801;28;20057;-64
2023/04/12 08:31:17;;;;;;;1.05;0.50;;;9.60;99.90;;;;;;5009874;28;20460;-64
2023/04/12 08:33:43;;;;;;;1.80;1.10;;;9.60;99.90;;;;;;5005957;28;20120;-64
2023/04/12 08:36:09;;;;;;;4.95;1.67;;;9.70;99.90;;;;;;5007102;28;20033;-65
2023/04/12 08:38:37;;;;;;;1.88;0.80;;;9.70;99.90;;;;;;4998991;28;20022;-64
2023/04/12 08:41:04;;;;;;;2.05;1.08;;;9.80;99.90;;;;;;5009846;28;20069;-64
2023/04/12 08:43:32;;;;;;;3.83;1.95;;;9.80;99.90;;;;;;5006371;28;20072;-65
2023/04/12 08:45:58;;;;;;;4.30;1.40;;;9.90;99.90;;;;;;5011598;28;20028;-65
2023/04/12 08:48:26;;;;;;;2.03;0.82;;;10.00;99.90;;;;;;5001149;28;20047;-65
2023/04/12 08:50:52;;;;;;;1.00;0.73;;;10.30;99.90;;;;;;5007011;28;20037;-65
2023/04/12 08:53:17;;;;;;;1.55;1.08;;;10.50;99.90;;;;;;4995398;28;20045;-64
2023/04/12 08:55:46;;;;;;;1.83;1.10;;;10.80;99.90;;;;;;5009799;28;20041;-65
2023/04/12 08:58:15;;;;;;;1.65;1.13;;;11.00;99.90;;;;;;5000334;28;20439;-65
2023/04/12 09:00:42;;;;;;;1.27;0.60;;;11.00;99.90;;;;;;5010690;28;20037;-65
2023/04/12 09:03:09;;;;;;;1.65;0.80;;;10.80;99.90;;;;;;5007190;28;20018;-64
2023/04/12 09:05:35;;;;;;;0.55;0.47;;;10.60;99.90;;;;;;5009970;28;20072;-65
2023/04/12 09:08:01;;;;;;;0.80;0.60;;;10.60;99.90;;;;;;4995346;28;20500;-64
2023/04/12 09:10:35;;;;;;;0.73;0.65;;;10.60;99.90;;;;;;5009193;28;20037;-64
2023/04/12 09:13:02;;;;;;;0.85;0.50;;;10.50;99.90;;;;;;5005689;28;20057;-65
2023/04/12 09:15:28;;;;;;;0.60;0.40;;;10.50;99.90;;;;;;5005323;28;20030;-65
2023/04/12 09:18:08;;;;;;;0.90;0.60;;;10.60;99.90;;;;;;5007630;28;20034;-67
2023/04/12 09:20:35;;;;;;;2.17;0.80;;;10.70;99.90;;;;;;5003578;28;20045;-65
2023/04/12 09:23:01;;;;;;;1.27;0.52;;;10.70;99.90;;;;;;5007765;28;20048;-63
2023/04/12 09:25:39;;;;;;;2.42;0.40;;;10.90;99.90;;;;;;5008820;28;20026;-64
2023/04/12 09:28:18;;;;;;;1.33;0.70;;;10.80;99.90;;;;;;4998754;28;20018;-65
2023/04/12 09:30:47;;;;;;;2.95;0.60;;;10.90;99.90;;;;;;5006201;28;20509;-65
2023/04/12 09:33:12;;;;;;;0.55;0.50;;;10.90;99.90;;;;;;5005275;28;20156;-65
2023/04/12 09:35:38;;;;;;;1.63;0.40;;;10.90;99.90;;;;;;5009324;28;20112;-66
2023/04/12 09:38:10;;;;;;;1.10;0.75;;;10.90;99.90;;;;;;4997333;28;20504;-65
2023/04/12 09:40:37;;;;;;;0.40;0.40;;;10.90;99.90;;;;;;5009266;28;20510;-65
2023/04/12 09:43:03;;;;;;;0.77;0.50;;;11.10;99.90;;;;;;5004628;28;20042;-64
2023/04/12 09:45:30;;;;;;;0.60;0.50;;;11.20;99.90;;;;;;5009539;28;20045;-65
2023/04/12 09:47:56;;;;;;;0.73;0.63;;;11.30;99.90;;;;;;4998884;28;20026;-64
2023/04/12 09:50:34;;;;;;;0.85;0.60;;;11.40;99.90;;;;;;5009067;28;20108;-65
2023/04/12 09:53:02;;;;;;;2.08;1.08;;;11.40;99.90;;;;;;4994753;28;20091;-64
2023/04/12 09:55:30;;;;;;;1.15;0.70;;;11.40;99.90;;;;;;5006186;28;20022;-65
2023/04/12 09:57:58;;;;;;;1.30;1.02;;;11.40;99.90;;;;;;5001538;28;20022;-64
2023/04/12 10:00:25;;;;;;;1.80;0.43;;;11.30;99.90;;;;;;5007306;28;20018;-65
2023/04/12 10:02:53;;;;;;;1.50;0.70;;;11.30;99.90;;;;;;5004574;28;20022;-64
2023/04/12 10:05:20;;;;;;;0.88;0.77;;;11.20;99.90;;;;;;5001605;28;20022;-64
2023/04/12 10:07:46;;;;;;;1.13;0.75;;;11.30;99.90;;;;;;4998633;28;20030;-65
2023/04/12 10:10:14;;;;;;;1.77;0.65;;;11.50;99.90;;;;;;5008531;28;20045;-65
2023/04/12 10:12:41;;;;;;;0.82;0.75;;;11.70;99.90;;;;;;5006922;28;20026;-66
2023/04/12 10:15:12;;;;;;;2.10;0.90;;;11.90;99.90;;;;;;5008095;28;20036;-64
2023/04/12 10:17:44;;;;;;;0.65;0.50;;;12.20;99.90;;;;;;5001178;28;20109;-65
2023/04/12 10:20:11;;;;;;;2.45;1.00;;;12.50;99.90;;;;;;5006397;28;20014;-65
2023/04/12 10:22:47;;;;;;;1.00;0.70;;;12.90;99.90;;;;;;5006114;28;20022;-65
2023/04/12 10:25:22;;;;;;;1.42;0.93;;;13.00;99.90;;;;;;5008232;28;20104;-65
2023/04/12 10:27:48;;;;;;;1.75;0.85;;;13.30;99.90;;;;;;5000039;28;20030;-63
2023/04/12 10:30:30;;;;;;;1.92;0.75;;;13.30;99.90;;;;;;5013221;28;20080;-64
2023/04/12 10:33:05;;;;;;;2.75;0.88;;;13.70;99.90;;;;;;5004082;28;20028;-65
2023/04/12 10:35:53;;;;;;;0.70;0.70;;;14.00;99.90;;;;;;5011440;28;20026;-65
2023/04/12 10:38:19;;;;;;;0.90;0.90;;;14.60;99.90;;;;;;5001127;28;20040;-65
2023/04/12 10:41:09;;;;;;;1.33;0.98;;;15.00;99.90;;;;;;5010876;28;20084;-65
2023/04/12 10:43:34;;;;;;;0.60;0.60;;;15.70;99.90;;;;;;5007260;28;20049;-65
2023/04/12 10:46:05;;;;;;;1.05;0.60;;;16.30;99.90;;;;;;5009000;28;20108;-64
2023/04/12 10:48:36;;;;;;;0.93;0.73;;;16.60;99.90;;;;;;5007540;28;20049;-64
2023/04/12 10:51:14;;;;;;;4.70;1.30;;;16.70;99.90;;;;;;5011852;28;20692;-65
2023/04/12 10:53:40;;;;;;;1.27;0.98;;;16.60;99.90;;;;;;4993451;28;20073;-65
2023/04/12 10:56:33;;;;;;;1.40;0.93;;;15.60;99.90;;;;;;5005840;28;20062;-65
2023/04/12 10:59:01;;;;;;;1.63;0.90;;;14.90;99.90;;;;;;5002276;28;20087;-63
2023/04/12 11:01:27;;;;;;;0.95;0.93;;;15.10;99.90;;;;;;5007521;28;20034;-64
2023/04/12 11:04:12;;;;;;;0.70;0.70;;;15.10;99.90;;;;;;5011838;28;20037;-64
2023/04/12 11:06:52;;;;;;;1.13;1.00;;;15.30;99.90;;;;;;5005609;28;20128;-65
2023/04/12 11:09:28;;;;;;;2.40;1.48;;;15.20;99.90;;;;;;5008424;28;20033;-65
2023/04/12 11:12:10;;;;;;;0.73;0.68;;;15.20;99.90;;;;;;5005548;28;20026;-64
2023/04/12 11:14:36;;;;;;;0.75;0.63;;;14.90;99.90;;;;;;5011107;28;20022;-64
2023/04/12 11:17:05;;;;;;;5.32;2.90;;;14.60;99.90;;;;;;5007728;28;20056;-65
2023/04/12 11:19:32;;;;;;;5.07;4.35;;;13.90;99.90;;;;;;5006142;28;20782;-64
2023/04/12 11:22:03;;;;;;;8.88;5.88;;;13.60;99.90;;;;;;5006008;28;20030;-64
2023/04/12 11:24:28;;;;;;;17.17;6.78;;;13.10;99.90;;;;;;5012337;28;20033;-64
2023/04/12 11:26:56;;;;;;;8.48;4.22;;;12.90;99.90;;;;;;5006695;28;20022;-63
2023/04/12 11:29:23;;;;;;;9.82;3.97;;;12.60;99.90;;;;;;5006418;28;20056;-64
2023/04/12 11:31:49;;;;;;;3.85;1.92;;;12.40;99.90;;;;;;5003353;28;20447;-67
2023/04/12 11:34:18;;;;;;;2.58;0.80;;;12.20;99.90;;;;;;5009227;28;20050;-65
2023/04/12 11:37:05;;;;;;;1.83;0.75;;;12.00;99.90;;;;;;5006329;28;20027;-66
2023/04/12 11:39:31;;;;;;;1.60;0.93;;;11.80;99.90;;;;;;5009894;28;20025;-65
2023/04/12 11:41:57;;;;;;;3.17;1.20;;;11.70;99.90;;;;;;5004884;28;20029;-65
2023/04/12 11:44:23;;;;;;;1.02;0.82;;;11.90;99.90;;;;;;5008782;28;20061;-66
2023/04/12 11:46:49;;;;;;;2.15;0.77;;;12.20;99.90;;;;;;5007401;28;20436;-65
2023/04/12 11:49:16;;;;;;;1.75;0.80;;;12.40;99.90;;;;;;5003859;28;20034;-67
2023/04/12 11:51:42;;;;;;;1.95;0.90;;;12.60;99.90;;;;;;5001174;28;20733;-66
2023/04/12 11:54:10;;;;;;;2.03;1.33;;;12.70;99.90;;;;;;4992922;28;20050;-66
2023/04/12 11:56:36;;;;;;;3.67;2.10;;;12.80;99.90;;;;;;5008451;28;20048;-65
2023/04/12 11:59:01;;;;;;;17.05;9.68;;;13.00;99.90;;;;;;5005161;28;20033;-66
2023/04/12 12:01:28;;;;;;;3.65;1.40;;;13.30;99.90;;;;;;5002421;28;20128;-66
2023/04/12 12:03:54;;;;;;;1.90;1.25;;;13.70;99.90;;;;;;5005790;28;20022;-65
2023/04/12 12:06:21;;;;;;;2.60;1.27;;;13.70;99.90;;;;;;5004477;28;20022;-65
2023/04/12 12:08:49;;;;;;;7.10;1.88;;;13.80;99.90;;;;;;5004478;28;20396;-66
2023/04/12 12:11:15;;;;;;;2.22;1.45;;;13.80;99.90;;;;;;5003558;28;20029;-66
2023/04/12 12:13:49;;;;;;;4.35;2.38;;;13.90;99.90;;;;;;5023550;28;20059;-66
2023/04/12 12:16:16;;;;;;;6.53;1.80;;;13.70;99.90;;;;;;5007210;28;20038;-66
2023/04/12 12:18:47;;;;;;;5.05;2.17;;;13.80;99.90;;;;;;5017452;28;20095;-66
2023/04/12 12:21:14;;;;;;;4.55;1.77;;;13.70;99.90;;;;;;5008124;28;20045;-66
2023/04/12 12:23:42;;;;;;;2.92;1.90;;;13.60;99.90;;;;;;5005261;28;20025;-65
2023/04/12 12:26:08;;;;;;;3.28;1.92;;;13.70;99.90;;;;;;5006081;28;20022;-66
2023/04/12 12:28:37;;;;;;;6.18;2.53;;;13.70;99.90;;;;;;5001247;28;20529;-66
2023/04/12 12:31:10;;;;;;;4.07;2.30;;;13.60;99.90;;;;;;5011744;28;20426;-66
2023/04/12 12:33:37;;;;;;;4.72;2.55;;;13.60;99.90;;;;;;5004283;28;20113;-66
2023/04/12 12:36:02;;;;;;;5.32;2.83;;;13.70;99.90;;;;;;5011088;28;20042;-65
2023/04/12 12:38:35;;;;;;;7.50;1.95;;;13.60;99.90;;;;;;5002318;28;20620;-66
2023/04/12 12:41:18;;;;;;;4.93;2.25;;;13.50;99.90;;;;;;5002746;28;20050;-66
2023/04/12 12:43:50;;;;;;;2.88;1.80;;;13.60;99.90;;;;;;5008362;28;20117;-65
2023/04/12 12:46:17;;;;;;;2.25;1.52;;;13.70;99.90;;;;;;5009646;28;20018;-66
2023/04/12 12:48:44;;;;;;;5.00;2.10;;;13.20;99.90;;;;;;5004830;28;20083;-66
2023/04/12 12:51:12;;;;;;;4.15;1.48;;;13.20;99.90;;;;;;4999791;28;20122;-66
2023/04/12 12:53:40;;;;;;;3.85;1.65;;;13.30;99.90;;;;;;5001680;28;20046;-66
2023/04/12 12:56:11;;;;;;;11.05;1.77;;;13.60;99.90;;;;;;4986763;28;20042;-66
2023/04/12 12:58:37;;;;;;;7.15;2.30;;;13.70;99.90;;;;;;5001240;28;20668;-65